Time,TemperatureF,DewpointF,PressureIn,WindDirection,WindDirectionDegrees,WindSpeedMPH,WindSpeedGustMPH,Humidity,HourlyPrecipIn,Conditions,Clouds,dailyrainin,SoftwareType,DateUTC
2013-05-19 00:22:00,53.0,49.0,30.08,West,263,20.0,-999.0,85,-99.99,,,-99.99,,2013-05-19 07:22:00,
2013-05-19 00:32:00,53.0,49.0,30.08,West,263,20.0,-999.0,85,-99.99,,,-99.99,,2013-05-19 07:32:00,
2013-05-19 00:42:00,53.0,49.0,30.08,West,263,20.0,-999.0,85,-99.99,,,-99.99,,2013-05-19 07:42:00,
2013-05-19 00:52:00,53.0,49.0,30.08,West,263,20.0,-999.0,85,-99.99,,,-99.99,,2013-05-19 07:52:00,
2013-05-19 01:01:00,53.0,49.0,30.08,West,263,20.0,-999.0,85,-99.99,,,-99.99,,2013-05-19 08:01:00,
2013-05-19 02:21:00,50.0,47.0,30.10,South,178,0.0,-999.0,91,-99.99,,,-99.99,,2013-05-19 09:21:00,
2013-05-19 02:33:00,50.0,47.0,30.10,South,178,0.0,-999.0,91,-99.99,,,-99.99,,2013-05-19 09:33:00,
2013-05-19 02:43:00,50.0,47.0,30.10,South,178,0.0,-999.0,91,-99.99,,,-99.99,,2013-05-19 09:43:00,
2013-05-19 02:53:00,50.0,47.0,30.10,South,178,0.0,-999.0,91,-99.99,,,-99.99,,2013-05-19 09:53:00,
2013-05-19 03:02:00,50.0,47.0,30.10,South,178,0.0,-999.0,91,-99.99,,,-99.99,,2013-05-19 10:02:00,
2013-05-19 04:22:00,51.0,48.0,30.10,SW,216,4.0,-999.0,89,-99.99,,,-99.99,,2013-05-19 11:22:00,
2013-05-19 04:32:00,51.0,48.0,30.10,SW,216,4.0,-999.0,89,-99.99,,,-99.99,,2013-05-19 11:32:00,
2013-05-19 04:42:00,51.0,48.0,30.10,SW,216,4.0,-999.0,89,-99.99,,,-99.99,,2013-05-19 11:42:00,
2013-05-19 04:52:00,51.0,48.0,30.10,SW,216,4.0,-999.0,89,-99.99,,,-99.99,,2013-05-19 11:52:00,
2013-05-19 05:01:00,51.0,48.0,30.10,SW,216,4.0,-999.0,89,-99.99,,,-99.99,,2013-05-19 12:01:00,
2013-05-19 06:21:00,50.0,47.0,30.10,SSW,212,0.0,-999.0,91,-99.99,,,-99.99,,2013-05-19 13:21:00,
2013-05-19 06:32:00,50.0,47.0,30.10,SSW,212,0.0,-999.0,91,-99.99,,,-99.99,,2013-05-19 13:32:00,
2013-05-19 06:42:00,50.0,47.0,30.10,SSW,212,0.0,-999.0,91,-99.99,,,-99.99,,2013-05-19 13:42:00,
2013-05-19 06:52:00,50.0,47.0,30.10,SSW,212,0.0,-999.0,91,-99.99,,,-99.99,,2013-05-19 13:52:00,
2013-05-19 07:02:00,50.0,47.0,30.10,SSW,212,0.0,-999.0,91,-99.99,,,-99.99,,2013-05-19 14:02:00,
2013-05-19 08:22:00,61.0,53.0,30.11,ESE,115,0.0,-999.0,76,-99.99,,,-99.99,,2013-05-19 15:22:00,
2013-05-19 08:33:00,61.0,53.0,30.11,ESE,115,0.0,-999.0,76,-99.99,,,-99.99,,2013-05-19 15:33:00,
2013-05-19 08:43:00,61.0,53.0,30.11,ESE,115,0.0,-999.0,76,-99.99,,,-99.99,,2013-05-19 15:43:00,
2013-05-19 08:53:00,61.0,53.0,30.11,ESE,115,0.0,-999.0,76,-99.99,,,-99.99,,2013-05-19 15:53:00,
2013-05-19 09:03:00,61.0,53.0,30.11,ESE,115,0.0,-999.0,76,-99.99,,,-99.99,,2013-05-19 16:03:00,
2013-05-19 10:22:00,62.0,53.0,30.11,SW,225,6.0,-999.0,72,-99.99,,,-99.99,,2013-05-19 17:22:00,
2013-05-19 10:32:00,62.0,53.0,30.11,SW,225,6.0,-999.0,72,-99.99,,,-99.99,,2013-05-19 17:32:00,
2013-05-19 10:42:00,62.0,53.0,30.11,SW,225,6.0,-999.0,72,-99.99,,,-99.99,,2013-05-19 17:42:00,
2013-05-19 10:52:00,62.0,53.0,30.11,SW,225,6.0,-999.0,72,-99.99,,,-99.99,,2013-05-19 17:52:00,
2013-05-19 11:02:00,62.0,53.0,30.11,SW,225,6.0,-999.0,72,-99.99,,,-99.99,,2013-05-19 18:02:00,
2013-05-19 12:22:00,67.0,50.0,30.09,SW,232,6.0,-999.0,54,-99.99,,,-99.99,,2013-05-19 19:22:00,
2013-05-19 12:32:00,67.0,50.0,30.09,SW,232,6.0,-999.0,54,-99.99,,,-99.99,,2013-05-19 19:32:00,
2013-05-19 12:42:00,67.0,50.0,30.09,SW,232,6.0,-999.0,54,-99.99,,,-99.99,,2013-05-19 19:42:00,
2013-05-19 12:52:00,67.0,50.0,30.09,SW,232,6.0,-999.0,54,-99.99,,,-99.99,,2013-05-19 19:52:00,
2013-05-19 13:02:00,67.0,50.0,30.09,SW,232,6.0,-999.0,54,-99.99,,,-99.99,,2013-05-19 20:02:00,
2013-05-19 14:22:00,63.0,51.0,30.07,WSW,246,9.0,-999.0,65,-99.99,,,-99.99,,2013-05-19 21:22:00,
2013-05-19 14:32:00,63.0,51.0,30.07,WSW,246,9.0,-999.0,65,-99.99,,,-99.99,,2013-05-19 21:32:00,
2013-05-19 14:43:00,63.0,51.0,30.07,WSW,246,9.0,-999.0,65,-99.99,,,-99.99,,2013-05-19 21:43:00,
2013-05-19 14:53:00,63.0,51.0,30.07,WSW,246,9.0,-999.0,65,-99.99,,,-99.99,,2013-05-19 21:53:00,
2013-05-19 15:02:00,63.0,51.0,30.07,WSW,246,9.0,-999.0,65,-99.99,,,-99.99,,2013-05-19 22:02:00,
2013-05-19 16:22:00,63.0,48.0,30.03,West,272,20.0,-999.0,58,-99.99,,,-99.99,,2013-05-19 23:22:00,
2013-05-19 16:32:00,63.0,48.0,30.03,West,272,20.0,-999.0,58,-99.99,,,-99.99,,2013-05-19 23:32:00,
2013-05-19 16:42:00,63.0,48.0,30.03,West,272,20.0,-999.0,58,-99.99,,,-99.99,,2013-05-19 23:42:00,
2013-05-19 16:52:00,63.0,48.0,30.03,West,272,20.0,-999.0,58,-99.99,,,-99.99,,2013-05-19 23:52:00,
2013-05-19 17:01:00,63.0,48.0,30.03,West,272,20.0,-999.0,58,-99.99,,,-99.99,,2013-05-20 00:01:00,
2013-05-19 18:22:00,59.0,50.0,30.00,WSW,238,11.0,-999.0,72,-99.99,,,-99.99,,2013-05-20 01:22:00,
2013-05-19 18:32:00,59.0,50.0,30.00,WSW,238,11.0,-999.0,72,-99.99,,,-99.99,,2013-05-20 01:32:00,
2013-05-19 18:42:00,59.0,50.0,30.00,WSW,238,11.0,-999.0,72,-99.99,,,-99.99,,2013-05-20 01:42:00,
2013-05-19 18:52:00,59.0,50.0,30.00,WSW,238,11.0,-999.0,72,-99.99,,,-99.99,,2013-05-20 01:52:00,
2013-05-19 19:01:00,59.0,50.0,30.00,WSW,238,11.0,-999.0,72,-99.99,,,-99.99,,2013-05-20 02:01:00,
2013-05-19 20:12:00,57.0,50.0,29.99,WSW,240,3.0,-999.0,76,-99.99,,,-99.99,,2013-05-20 03:12:00,
2013-05-19 20:21:00,57.0,50.0,29.99,WSW,240,3.0,-999.0,76,-99.99,,,-99.99,,2013-05-20 03:21:00,
2013-05-19 20:33:00,57.0,50.0,29.99,WSW,240,3.0,-999.0,76,-99.99,,,-99.99,,2013-05-20 03:33:00,
2013-05-19 20:43:00,57.0,50.0,29.99,WSW,240,3.0,-999.0,76,-99.99,,,-99.99,,2013-05-20 03:43:00,
2013-05-19 20:52:00,57.0,50.0,29.99,WSW,240,3.0,-999.0,76,-99.99,,,-99.99,,2013-05-20 03:52:00,
2013-05-19 21:02:00,57.0,50.0,29.99,WSW,240,3.0,-999.0,76,-99.99,,,-99.99,,2013-05-20 04:02:00,
2013-05-19 22:12:00,52.0,48.0,30.00,SSW,202,1.0,-999.0,87,-99.99,,,-99.99,,2013-05-20 05:12:00,
2013-05-19 22:22:00,52.0,48.0,30.00,SSW,202,1.0,-999.0,87,-99.99,,,-99.99,,2013-05-20 05:22:00,
2013-05-19 22:32:00,52.0,48.0,30.00,SSW,202,1.0,-999.0,87,-99.99,,,-99.99,,2013-05-20 05:32:00,
2013-05-19 22:42:00,52.0,48.0,30.00,SSW,202,1.0,-999.0,87,-99.99,,,-99.99,,2013-05-20 05:42:00,
2013-05-19 22:52:00,52.0,48.0,30.00,SSW,202,1.0,-999.0,87,-99.99,,,-99.99,,2013-05-20 05:52:00,
2013-05-19 23:01:00,52.0,48.0,30.00,SSW,202,1.0,-999.0,87,-99.99,,,-99.99,,2013-05-20 06:01:00,